sensor_id;sensor_type;location;lat;lon;timestamp;P1;durP1;ratioP1;P2;durP2;ratioP2
56267;SDS011;42175;46.930;9.532;2023-04-03T00:01:05;4.10;;;1.17;;
56267;SDS011;42175;46.930;9.532;2023-04-03T00:03:31;2.50;;;1.10;;
56267;SDS011;42175;46.930;9.532;2023-04-03T00:05:57;1.30;;;0.73;;
56267;SDS011;42175;46.930;9.532;2023-04-03T00:08:23;1.00;;;0.70;;
56267;SDS011;42175;46.930;9.532;2023-04-03T00:10:49;1.73;;;0.95;;
56267;SDS011;42175;46.930;9.532;2023-04-03T00:13:15;0.95;;;0.60;;
56267;SDS011;42175;46.930;9.532;2023-04-03T00:15:41;1.33;;;0.70;;
56267;SDS011;42175;46.930;9.532;2023-04-03T00:18:07;0.93;;;0.70;;
56267;SDS011;42175;46.930;9.532;2023-04-03T00:20:33;2.58;;;0.90;;
56267;SDS011;42175;46.930;9.532;2023-04-03T00:22:59;1.35;;;0.93;;
56267;SDS011;42175;46.930;9.532;2023-04-03T00:25:26;2.65;;;1.00;;
56267;SDS011;42175;46.930;9.532;2023-04-03T00:27:52;1.55;;;1.05;;
56267;SDS011;42175;46.930;9.532;2023-04-03T00:30:20;1.27;;;0.90;;
56267;SDS011;42175;46.930;9.532;2023-04-03T00:32:50;1.23;;;0.70;;
56267;SDS011;42175;46.930;9.532;2023-04-03T00:35:17;0.98;;;0.70;;
56267;SDS011;42175;46.930;9.532;2023-04-03T00:37:44;1.48;;;0.88;;
56267;SDS011;42175;46.930;9.532;2023-04-03T00:40:10;2.90;;;1.10;;
56267;SDS011;42175;46.930;9.532;2023-04-03T00:42:37;2.80;;;0.90;;
56267;SDS011;42175;46.930;9.532;2023-04-03T00:47:30;1.60;;;0.90;;
56267;SDS011;42175;46.930;9.532;2023-04-03T00:49:56;1.80;;;0.80;;
56267;SDS011;42175;46.930;9.532;2023-04-03T00:52:23;1.20;;;1.00;;
56267;SDS011;42175;46.930;9.532;2023-04-03T00:54:54;1.20;;;0.80;;
56267;SDS011;42175;46.930;9.532;2023-04-03T00:57:25;1.52;;;0.77;;
56267;SDS011;42175;46.930;9.532;2023-04-03T00:59:53;1.05;;;0.80;;
56267;SDS011;42175;46.930;9.532;2023-04-03T01:02:24;1.25;;;0.90;;
56267;SDS011;42175;46.930;9.532;2023-04-03T01:04:51;1.90;;;0.85;;
56267;SDS011;42175;46.930;9.532;2023-04-03T01:07:18;1.08;;;0.73;;
56267;SDS011;42175;46.930;9.532;2023-04-03T01:09:48;2.50;;;0.80;;
56267;SDS011;42175;46.930;9.532;2023-04-03T01:14:45;1.33;;;0.90;;
56267;SDS011;42175;46.930;9.532;2023-04-03T01:20:34;0.65;;;0.60;;
56267;SDS011;42175;46.930;9.532;2023-04-03T01:23:27;1.02;;;0.60;;
56267;SDS011;42175;46.930;9.532;2023-04-03T01:26:14;0.98;;;0.80;;
56267;SDS011;42175;46.930;9.532;2023-04-03T01:28:40;2.53;;;0.88;;
56267;SDS011;42175;46.930;9.532;2023-04-03T01:33:40;1.40;;;0.77;;
56267;SDS011;42175;46.930;9.532;2023-04-03T01:36:07;1.33;;;0.70;;
56267;SDS011;42175;46.930;9.532;2023-04-03T01:38:33;2.75;;;0.80;;
56267;SDS011;42175;46.930;9.532;2023-04-03T01:40:59;1.98;;;1.00;;
56267;SDS011;42175;46.930;9.532;2023-04-03T01:43:25;1.25;;;0.63;;
56267;SDS011;42175;46.930;9.532;2023-04-03T01:45:50;5.43;;;1.45;;
56267;SDS011;42175;46.930;9.532;2023-04-03T01:48:17;2.85;;;0.93;;
56267;SDS011;42175;46.930;9.532;2023-04-03T01:50:43;5.35;;;0.73;;
56267;SDS011;42175;46.930;9.532;2023-04-03T01:53:09;1.33;;;0.70;;
56267;SDS011;42175;46.930;9.532;2023-04-03T01:55:34;1.20;;;0.80;;
56267;SDS011;42175;46.930;9.532;2023-04-03T01:58:00;1.88;;;0.90;;
56267;SDS011;42175;46.930;9.532;2023-04-03T02:00:26;1.17;;;0.70;;
56267;SDS011;42175;46.930;9.532;2023-04-03T02:02:52;1.73;;;0.93;;
56267;SDS011;42175;46.930;9.532;2023-04-03T02:05:17;1.20;;;0.63;;
56267;SDS011;42175;46.930;9.532;2023-04-03T02:07:43;1.00;;;0.68;;
56267;SDS011;42175;46.930;9.532;2023-04-03T02:10:09;1.13;;;0.60;;
56267;SDS011;42175;46.930;9.532;2023-04-03T02:12:35;0.98;;;0.80;;
56267;SDS011;42175;46.930;9.532;2023-04-03T02:15:01;1.35;;;0.80;;
56267;SDS011;42175;46.930;9.532;2023-04-03T02:17:26;1.50;;;0.80;;
56267;SDS011;42175;46.930;9.532;2023-04-03T02:19:52;1.10;;;0.63;;
56267;SDS011;42175;46.930;9.532;2023-04-03T02:22:18;1.05;;;0.73;;
56267;SDS011;42175;46.930;9.532;2023-04-03T02:24:45;1.02;;;0.80;;
56267;SDS011;42175;46.930;9.532;2023-04-03T02:27:10;1.92;;;0.80;;
56267;SDS011;42175;46.930;9.532;2023-04-03T02:29:36;0.85;;;0.73;;
56267;SDS011;42175;46.930;9.532;2023-04-03T02:32:02;0.98;;;0.70;;
56267;SDS011;42175;46.930;9.532;2023-04-03T02:34:28;1.13;;;0.60;;
56267;SDS011;42175;46.930;9.532;2023-04-03T02:36:54;1.85;;;0.90;;
56267;SDS011;42175;46.930;9.532;2023-04-03T02:39:19;0.95;;;0.70;;
56267;SDS011;42175;46.930;9.532;2023-04-03T02:41:45;1.30;;;0.80;;
56267;SDS011;42175;46.930;9.532;2023-04-03T02:44:11;0.85;;;0.75;;
56267;SDS011;42175;46.930;9.532;2023-04-03T02:46:38;0.88;;;0.70;;
56267;SDS011;42175;46.930;9.532;2023-04-03T02:49:04;1.50;;;0.95;;
56267;SDS011;42175;46.930;9.532;2023-04-03T02:51:30;0.90;;;0.75;;
56267;SDS011;42175;46.930;9.532;2023-04-03T02:53:56;1.38;;;0.82;;
56267;SDS011;42175;46.930;9.532;2023-04-03T02:56:22;1.98;;;0.70;;
56267;SDS011;42175;46.930;9.532;2023-04-03T02:58:47;0.82;;;0.65;;
56267;SDS011;42175;46.930;9.532;2023-04-03T03:01:13;0.88;;;0.60;;
56267;SDS011;42175;46.930;9.532;2023-04-03T03:03:39;0.82;;;0.68;;
56267;SDS011;42175;46.930;9.532;2023-04-03T03:06:12;12.60;;;0.80;;
56267;SDS011;42175;46.930;9.532;2023-04-03T03:08:40;1.02;;;0.70;;
56267;SDS011;42175;46.930;9.532;2023-04-03T03:11:06;1.25;;;0.80;;
56267;SDS011;42175;46.930;9.532;2023-04-03T03:13:32;1.02;;;0.80;;
56267;SDS011;42175;46.930;9.532;2023-04-03T03:15:59;1.08;;;0.77;;
56267;SDS011;42175;46.930;9.532;2023-04-03T03:18:25;1.02;;;0.70;;
56267;SDS011;42175;46.930;9.532;2023-04-03T03:20:54;1.88;;;0.82;;
56267;SDS011;42175;46.930;9.532;2023-04-03T03:23:22;3.10;;;0.85;;
56267;SDS011;42175;46.930;9.532;2023-04-03T03:25:53;3.38;;;0.70;;
56267;SDS011;42175;46.930;9.532;2023-04-03T03:28:30;1.15;;;0.70;;
56267;SDS011;42175;46.930;9.532;2023-04-03T03:30:57;1.00;;;0.80;;
56267;SDS011;42175;46.930;9.532;2023-04-03T03:33:23;1.13;;;0.75;;
56267;SDS011;42175;46.930;9.532;2023-04-03T03:35:50;2.58;;;0.80;;
56267;SDS011;42175;46.930;9.532;2023-04-03T03:38:16;0.95;;;0.75;;
56267;SDS011;42175;46.930;9.532;2023-04-03T03:40:42;1.13;;;0.80;;
56267;SDS011;42175;46.930;9.532;2023-04-03T03:43:08;0.93;;;0.70;;
56267;SDS011;42175;46.930;9.532;2023-04-03T03:45:34;1.10;;;0.80;;
56267;SDS011;42175;46.930;9.532;2023-04-03T03:47:59;1.48;;;0.88;;
56267;SDS011;42175;46.930;9.532;2023-04-03T03:50:25;2.40;;;0.80;;
56267;SDS011;42175;46.930;9.532;2023-04-03T03:52:51;1.17;;;0.90;;
56267;SDS011;42175;46.930;9.532;2023-04-03T03:55:17;4.60;;;1.00;;
56267;SDS011;42175;46.930;9.532;2023-04-03T03:57:43;2.35;;;0.90;;
56267;SDS011;42175;46.930;9.532;2023-04-03T04:00:09;1.75;;;1.20;;
56267;SDS011;42175;46.930;9.532;2023-04-03T04:02:35;2.83;;;1.10;;
56267;SDS011;42175;46.930;9.532;2023-04-03T04:05:01;2.28;;;1.25;;
56267;SDS011;42175;46.930;9.532;2023-04-03T04:07:27;2.55;;;1.30;;
56267;SDS011;42175;46.930;9.532;2023-04-03T04:09:54;1.33;;;1.00;;
56267;SDS011;42175;46.930;9.532;2023-04-03T04:12:20;1.65;;;0.95;;
56267;SDS011;42175;46.930;9.532;2023-04-03T04:14:46;1.33;;;1.00;;
56267;SDS011;42175;46.930;9.532;2023-04-03T04:17:15;3.22;;;1.00;;
56267;SDS011;42175;46.930;9.532;2023-04-03T04:19:41;1.30;;;1.10;;
56267;SDS011;42175;46.930;9.532;2023-04-03T04:22:06;2.33;;;1.27;;
56267;SDS011;42175;46.930;9.532;2023-04-03T04:24:32;1.50;;;1.20;;
56267;SDS011;42175;46.930;9.532;2023-04-03T04:26:58;1.52;;;1.00;;
56267;SDS011;42175;46.930;9.532;2023-04-03T04:29:23;2.05;;;1.20;;
56267;SDS011;42175;46.930;9.532;2023-04-03T04:31:49;1.58;;;1.38;;
56267;SDS011;42175;46.930;9.532;2023-04-03T04:34:15;2.67;;;1.15;;
56267;SDS011;42175;46.930;9.532;2023-04-03T04:36:41;1.95;;;1.42;;
56267;SDS011;42175;46.930;9.532;2023-04-03T04:39:06;2.38;;;1.08;;
56267;SDS011;42175;46.930;9.532;2023-04-03T04:41:32;2.90;;;1.20;;
56267;SDS011;42175;46.930;9.532;2023-04-03T04:43:59;4.00;;;1.70;;
56267;SDS011;42175;46.930;9.532;2023-04-03T04:46:25;4.32;;;1.63;;
56267;SDS011;42175;46.930;9.532;2023-04-03T04:48:50;7.72;;;1.70;;
56267;SDS011;42175;46.930;9.532;2023-04-03T04:51:16;3.13;;;1.73;;
56267;SDS011;42175;46.930;9.532;2023-04-03T04:53:42;9.18;;;2.30;;
56267;SDS011;42175;46.930;9.532;2023-04-03T04:56:08;27.88;;;3.60;;
56267;SDS011;42175;46.930;9.532;2023-04-03T04:58:35;16.75;;;3.08;;
56267;SDS011;42175;46.930;9.532;2023-04-03T05:01:05;9.65;;;3.20;;
56267;SDS011;42175;46.930;9.532;2023-04-03T05:03:32;6.07;;;2.38;;
56267;SDS011;42175;46.930;9.532;2023-04-03T05:05:58;3.88;;;2.55;;
56267;SDS011;42175;46.930;9.532;2023-04-03T05:08:24;7.55;;;3.20;;
56267;SDS011;42175;46.930;9.532;2023-04-03T05:10:50;7.88;;;4.07;;
56267;SDS011;42175;46.930;9.532;2023-04-03T05:13:16;7.22;;;4.20;;
56267;SDS011;42175;46.930;9.532;2023-04-03T05:15:42;14.35;;;3.60;;
56267;SDS011;42175;46.930;9.532;2023-04-03T05:18:08;8.45;;;3.75;;
56267;SDS011;42175;46.930;9.532;2023-04-03T05:20:34;7.68;;;3.55;;
56267;SDS011;42175;46.930;9.532;2023-04-03T05:23:02;18.38;;;4.03;;
56267;SDS011;42175;46.930;9.532;2023-04-03T05:25:28;4.97;;;2.53;;
56267;SDS011;42175;46.930;9.532;2023-04-03T05:27:54;4.68;;;2.67;;
56267;SDS011;42175;46.930;9.532;2023-04-03T05:30:20;5.30;;;2.60;;
56267;SDS011;42175;46.930;9.532;2023-04-03T05:32:46;7.32;;;2.50;;
56267;SDS011;42175;46.930;9.532;2023-04-03T05:35:12;7.72;;;2.80;;
56267;SDS011;42175;46.930;9.532;2023-04-03T05:37:38;6.03;;;2.90;;
56267;SDS011;42175;46.930;9.532;2023-04-03T05:40:04;7.35;;;3.40;;
56267;SDS011;42175;46.930;9.532;2023-04-03T05:42:31;9.25;;;3.38;;
56267;SDS011;42175;46.930;9.532;2023-04-03T05:44:57;15.70;;;4.35;;
56267;SDS011;42175;46.930;9.532;2023-04-03T05:47:23;14.82;;;4.85;;
56267;SDS011;42175;46.930;9.532;2023-04-03T05:49:48;17.38;;;4.65;;
56267;SDS011;42175;46.930;9.532;2023-04-03T05:54:48;14.27;;;4.47;;
56267;SDS011;42175;46.930;9.532;2023-04-03T05:57:15;70.97;;;35.10;;
56267;SDS011;42175;46.930;9.532;2023-04-03T05:59:42;145.65;;;65.47;;
56267;SDS011;42175;46.930;9.532;2023-04-03T06:02:11;144.27;;;63.35;;
56267;SDS011;42175;46.930;9.532;2023-04-03T06:04:39;91.60;;;45.42;;
56267;SDS011;42175;46.930;9.532;2023-04-03T06:07:05;78.85;;;40.30;;
56267;SDS011;42175;46.930;9.532;2023-04-03T06:09:32;70.85;;;31.05;;
56267;SDS011;42175;46.930;9.532;2023-04-03T06:11:58;65.13;;;23.38;;
56267;SDS011;42175;46.930;9.532;2023-04-03T06:14:24;51.90;;;19.90;;
56267;SDS011;42175;46.930;9.532;2023-04-03T06:16:51;41.72;;;17.58;;
56267;SDS011;42175;46.930;9.532;2023-04-03T06:19:17;45.13;;;15.13;;
56267;SDS011;42175;46.930;9.532;2023-04-03T06:21:43;33.35;;;13.35;;
56267;SDS011;42175;46.930;9.532;2023-04-03T06:24:09;28.73;;;12.65;;
56267;SDS011;42175;46.930;9.532;2023-04-03T06:26:39;35.60;;;11.85;;
56267;SDS011;42175;46.930;9.532;2023-04-03T06:29:05;25.98;;;11.32;;
56267;SDS011;42175;46.930;9.532;2023-04-03T06:31:32;26.65;;;10.35;;
56267;SDS011;42175;46.930;9.532;2023-04-03T06:33:58;23.33;;;9.15;;
56267;SDS011;42175;46.930;9.532;2023-04-03T06:36:23;22.30;;;9.25;;
56267;SDS011;42175;46.930;9.532;2023-04-03T06:38:49;29.65;;;9.48;;
56267;SDS011;42175;46.930;9.532;2023-04-03T06:41:15;22.70;;;8.77;;
56267;SDS011;42175;46.930;9.532;2023-04-03T06:43:42;26.75;;;9.13;;
56267;SDS011;42175;46.930;9.532;2023-04-03T06:46:19;22.63;;;8.50;;
56267;SDS011;42175;46.930;9.532;2023-04-03T06:48:47;20.25;;;7.22;;
56267;SDS011;42175;46.930;9.532;2023-04-03T06:51:23;24.58;;;7.18;;
56267;SDS011;42175;46.930;9.532;2023-04-03T06:53:51;21.38;;;6.63;;
56267;SDS011;42175;46.930;9.532;2023-04-03T06:56:18;12.93;;;6.75;;
56267;SDS011;42175;46.930;9.532;2023-04-03T06:58:44;15.80;;;6.13;;
56267;SDS011;42175;46.930;9.532;2023-04-03T07:01:11;26.92;;;8.02;;
56267;SDS011;42175;46.930;9.532;2023-04-03T07:03:39;19.08;;;6.32;;
56267;SDS011;42175;46.930;9.532;2023-04-03T07:06:05;15.13;;;6.20;;
56267;SDS011;42175;46.930;9.532;2023-04-03T07:08:32;23.85;;;7.70;;
56267;SDS011;42175;46.930;9.532;2023-04-03T07:10:59;21.52;;;6.57;;
56267;SDS011;42175;46.930;9.532;2023-04-03T07:13:24;18.55;;;6.40;;
56267;SDS011;42175;46.930;9.532;2023-04-03T07:15:50;18.35;;;6.80;;
56267;SDS011;42175;46.930;9.532;2023-04-03T07:18:17;23.30;;;7.18;;
56267;SDS011;42175;46.930;9.532;2023-04-03T07:20:42;30.63;;;8.85;;
56267;SDS011;42175;46.930;9.532;2023-04-03T07:23:08;41.50;;;9.60;;
56267;SDS011;42175;46.930;9.532;2023-04-03T07:25:34;30.20;;;9.32;;
56267;SDS011;42175;46.930;9.532;2023-04-03T07:28:00;10.45;;;5.43;;
56267;SDS011;42175;46.930;9.532;2023-04-03T07:30:26;6.53;;;4.32;;
56267;SDS011;42175;46.930;9.532;2023-04-03T07:32:51;8.52;;;4.43;;
56267;SDS011;42175;46.930;9.532;2023-04-03T07:35:17;7.95;;;4.32;;
56267;SDS011;42175;46.930;9.532;2023-04-03T07:37:43;5.38;;;4.18;;
56267;SDS011;42175;46.930;9.532;2023-04-03T07:40:09;8.50;;;4.00;;
56267;SDS011;42175;46.930;9.532;2023-04-03T07:42:35;5.10;;;3.60;;
56267;SDS011;42175;46.930;9.532;2023-04-03T07:45:02;6.05;;;4.38;;
56267;SDS011;42175;46.930;9.532;2023-04-03T07:47:29;7.22;;;3.40;;
56267;SDS011;42175;46.930;9.532;2023-04-03T07:49:56;6.20;;;2.95;;
56267;SDS011;42175;46.930;9.532;2023-04-03T07:52:23;7.95;;;3.03;;
56267;SDS011;42175;46.930;9.532;2023-04-03T07:54:50;6.45;;;2.90;;
56267;SDS011;42175;46.930;9.532;2023-04-03T07:57:16;7.47;;;2.90;;
56267;SDS011;42175;46.930;9.532;2023-04-03T07:59:41;8.63;;;3.53;;
56267;SDS011;42175;46.930;9.532;2023-04-03T08:02:11;10.07;;;3.25;;
56267;SDS011;42175;46.930;9.532;2023-04-03T08:04:37;8.80;;;2.55;;
56267;SDS011;42175;46.930;9.532;2023-04-03T08:07:03;7.85;;;2.53;;
56267;SDS011;42175;46.930;9.532;2023-04-03T08:09:29;8.15;;;2.78;;
56267;SDS011;42175;46.930;9.532;2023-04-03T08:11:56;6.07;;;2.53;;
56267;SDS011;42175;46.930;9.532;2023-04-03T08:14:23;12.02;;;2.75;;
56267;SDS011;42175;46.930;9.532;2023-04-03T08:16:49;6.15;;;2.10;;
56267;SDS011;42175;46.930;9.532;2023-04-03T08:19:15;5.88;;;2.63;;
56267;SDS011;42175;46.930;9.532;2023-04-03T08:21:43;4.80;;;2.78;;
56267;SDS011;42175;46.930;9.532;2023-04-03T08:24:10;6.38;;;2.60;;
56267;SDS011;42175;46.930;9.532;2023-04-03T08:26:36;5.68;;;2.70;;
56267;SDS011;42175;46.930;9.532;2023-04-03T08:29:02;4.85;;;2.25;;
56267;SDS011;42175;46.930;9.532;2023-04-03T08:31:28;7.60;;;2.80;;
56267;SDS011;42175;46.930;9.532;2023-04-03T08:33:54;7.47;;;2.38;;
56267;SDS011;42175;46.930;9.532;2023-04-03T08:36:23;7.85;;;2.53;;
56267;SDS011;42175;46.930;9.532;2023-04-03T08:38:51;6.47;;;2.30;;
56267;SDS011;42175;46.930;9.532;2023-04-03T08:41:29;10.05;;;3.13;;
56267;SDS011;42175;46.930;9.532;2023-04-03T08:44:04;6.95;;;2.30;;
56267;SDS011;42175;46.930;9.532;2023-04-03T08:46:42;8.70;;;3.15;;
56267;SDS011;42175;46.930;9.532;2023-04-03T08:49:30;18.15;;;3.50;;
56267;SDS011;42175;46.930;9.532;2023-04-03T08:51:57;21.33;;;3.88;;
56267;SDS011;42175;46.930;9.532;2023-04-03T08:54:37;17.92;;;4.53;;
56267;SDS011;42175;46.930;9.532;2023-04-03T08:57:13;12.88;;;4.55;;
56267;SDS011;42175;46.930;9.532;2023-04-03T08:59:39;12.02;;;4.28;;
56267;SDS011;42175;46.930;9.532;2023-04-03T09:02:17;14.00;;;3.88;;
56267;SDS011;42175;46.930;9.532;2023-04-03T09:04:50;14.63;;;3.90;;
56267;SDS011;42175;46.930;9.532;2023-04-03T09:07:39;16.98;;;4.07;;
56267;SDS011;42175;46.930;9.532;2023-04-03T09:10:10;16.42;;;3.92;;
56267;SDS011;42175;46.930;9.532;2023-04-03T09:12:42;13.25;;;4.20;;
56267;SDS011;42175;46.930;9.532;2023-04-03T09:15:22;13.40;;;4.43;;
56267;SDS011;42175;46.930;9.532;2023-04-03T09:17:55;15.52;;;4.25;;
56267;SDS011;42175;46.930;9.532;2023-04-03T09:23:18;10.77;;;3.50;;
56267;SDS011;42175;46.930;9.532;2023-04-03T09:25:56;9.45;;;4.05;;
56267;SDS011;42175;46.930;9.532;2023-04-03T09:28:31;8.90;;;3.65;;
56267;SDS011;42175;46.930;9.532;2023-04-03T09:31:00;13.32;;;3.45;;
56267;SDS011;42175;46.930;9.532;2023-04-03T09:33:35;7.60;;;3.47;;
56267;SDS011;42175;46.930;9.532;2023-04-03T09:36:01;8.43;;;3.92;;
56267;SDS011;42175;46.930;9.532;2023-04-03T09:38:27;7.90;;;3.22;;
56267;SDS011;42175;46.930;9.532;2023-04-03T09:41:35;18.13;;;5.32;;
56267;SDS011;42175;46.930;9.532;2023-04-03T09:43:51;10.48;;;3.28;;
56267;SDS011;42175;46.930;9.532;2023-04-03T09:46:30;7.05;;;3.28;;
56267;SDS011;42175;46.930;9.532;2023-04-03T09:48:59;7.68;;;3.17;;
56267;SDS011;42175;46.930;9.532;2023-04-03T09:51:28;5.38;;;2.95;;
56267;SDS011;42175;46.930;9.532;2023-04-03T09:53:55;8.77;;;3.30;;
56267;SDS011;42175;46.930;9.532;2023-04-03T09:56:23;6.63;;;3.03;;
56267;SDS011;42175;46.930;9.532;2023-04-03T10:01:35;6.20;;;2.58;;
56267;SDS011;42175;46.930;9.532;2023-04-03T10:06:32;7.88;;;2.58;;
56267;SDS011;42175;46.930;9.532;2023-04-03T10:09:04;5.43;;;2.88;;
56267;SDS011;42175;46.930;9.532;2023-04-03T10:14:30;13.05;;;3.10;;
56267;SDS011;42175;46.930;9.532;2023-04-03T10:17:09;6.40;;;3.65;;
56267;SDS011;42175;46.930;9.532;2023-04-03T10:20:23;7.05;;;3.00;;
56267;SDS011;42175;46.930;9.532;2023-04-03T10:25:33;6.68;;;3.03;;
56267;SDS011;42175;46.930;9.532;2023-04-03T10:28:20;8.38;;;3.05;;
56267;SDS011;42175;46.930;9.532;2023-04-03T10:31:03;5.80;;;2.80;;
56267;SDS011;42175;46.930;9.532;2023-04-03T10:33:47;5.35;;;2.60;;
56267;SDS011;42175;46.930;9.532;2023-04-03T10:36:40;8.23;;;3.33;;
56267;SDS011;42175;46.930;9.532;2023-04-03T10:44:56;6.97;;;2.75;;
56267;SDS011;42175;46.930;9.532;2023-04-03T10:47:45;8.00;;;2.72;;
56267;SDS011;42175;46.930;9.532;2023-04-03T10:55:37;4.70;;;2.50;;
56267;SDS011;42175;46.930;9.532;2023-04-03T10:58:26;4.60;;;2.55;;
56267;SDS011;42175;46.930;9.532;2023-04-03T11:00:57;9.85;;;3.03;;
56267;SDS011;42175;46.930;9.532;2023-04-03T11:03:35;5.82;;;2.92;;
56267;SDS011;42175;46.930;9.532;2023-04-03T11:06:10;8.45;;;2.53;;
56267;SDS011;42175;46.930;9.532;2023-04-03T11:08:56;6.45;;;2.40;;
56267;SDS011;42175;46.930;9.532;2023-04-03T11:11:31;6.50;;;2.58;;
56267;SDS011;42175;46.930;9.532;2023-04-03T11:14:05;7.90;;;2.50;;
56267;SDS011;42175;46.930;9.532;2023-04-03T11:16:59;6.18;;;2.88;;
56267;SDS011;42175;46.930;9.532;2023-04-03T11:22:35;6.72;;;2.45;;
56267;SDS011;42175;46.930;9.532;2023-04-03T11:35:42;3.35;;;2.30;;
56267;SDS011;42175;46.930;9.532;2023-04-03T11:38:14;5.80;;;2.45;;
56267;SDS011;42175;46.930;9.532;2023-04-03T11:40:47;4.30;;;2.42;;
56267;SDS011;42175;46.930;9.532;2023-04-03T11:43:31;4.20;;;1.90;;
56267;SDS011;42175;46.930;9.532;2023-04-03T11:53:32;5.57;;;2.15;;
56267;SDS011;42175;46.930;9.532;2023-04-03T11:56:03;6.00;;;2.00;;
56267;SDS011;42175;46.930;9.532;2023-04-03T12:01:47;4.30;;;2.30;;
56267;SDS011;42175;46.930;9.532;2023-04-03T12:04:16;3.42;;;1.90;;
56267;SDS011;42175;46.930;9.532;2023-04-03T12:12:30;4.10;;;2.00;;
56267;SDS011;42175;46.930;9.532;2023-04-03T12:17:51;5.30;;;1.95;;
56267;SDS011;42175;46.930;9.532;2023-04-03T12:23:31;3.72;;;2.00;;
56267;SDS011;42175;46.930;9.532;2023-04-03T12:26:18;3.65;;;2.20;;
56267;SDS011;42175;46.930;9.532;2023-04-03T12:28:44;6.75;;;1.98;;
56267;SDS011;42175;46.930;9.532;2023-04-03T12:31:11;3.97;;;2.00;;
56267;SDS011;42175;46.930;9.532;2023-04-03T12:33:42;3.63;;;1.98;;
56267;SDS011;42175;46.930;9.532;2023-04-03T12:36:36;4.35;;;1.92;;
56267;SDS011;42175;46.930;9.532;2023-04-03T12:39:25;4.38;;;1.98;;
56267;SDS011;42175;46.930;9.532;2023-04-03T12:45:20;5.45;;;1.95;;
56267;SDS011;42175;46.930;9.532;2023-04-03T12:47:50;4.43;;;1.90;;
56267;SDS011;42175;46.930;9.532;2023-04-03T12:50:24;5.38;;;1.90;;
56267;SDS011;42175;46.930;9.532;2023-04-03T12:53:02;4.78;;;1.50;;
56267;SDS011;42175;46.930;9.532;2023-04-03T12:55:31;5.07;;;1.80;;
56267;SDS011;42175;46.930;9.532;2023-04-03T12:57:57;3.00;;;1.70;;
56267;SDS011;42175;46.930;9.532;2023-04-03T13:03:38;3.53;;;1.75;;
56267;SDS011;42175;46.930;9.532;2023-04-03T13:06:10;5.70;;;1.80;;
56267;SDS011;42175;46.930;9.532;2023-04-03T13:08:54;2.97;;;1.70;;
56267;SDS011;42175;46.930;9.532;2023-04-03T13:11:22;3.70;;;1.60;;
56267;SDS011;42175;46.930;9.532;2023-04-03T13:13:54;2.88;;;1.80;;
56267;SDS011;42175;46.930;9.532;2023-04-03T13:16:21;4.78;;;1.75;;
56267;SDS011;42175;46.930;9.532;2023-04-03T13:18:51;3.45;;;2.10;;
56267;SDS011;42175;46.930;9.532;2023-04-03T13:21:19;2.15;;;1.40;;
56267;SDS011;42175;46.930;9.532;2023-04-03T13:23:50;3.55;;;1.90;;
56267;SDS011;42175;46.930;9.532;2023-04-03T13:26:18;5.68;;;2.38;;
56267;SDS011;42175;46.930;9.532;2023-04-03T13:28:47;3.80;;;1.58;;
56267;SDS011;42175;46.930;9.532;2023-04-03T13:33:50;2.83;;;1.80;;
56267;SDS011;42175;46.930;9.532;2023-04-03T13:36:30;4.72;;;1.83;;
56267;SDS011;42175;46.930;9.532;2023-04-03T13:39:06;1.92;;;1.30;;
56267;SDS011;42175;46.930;9.532;2023-04-03T13:41:36;2.95;;;1.50;;
56267;SDS011;42175;46.930;9.532;2023-04-03T13:46:54;1.95;;;1.40;;
56267;SDS011;42175;46.930;9.532;2023-04-03T13:49:22;2.58;;;1.73;;
56267;SDS011;42175;46.930;9.532;2023-04-03T13:51:59;2.85;;;1.58;;
56267;SDS011;42175;46.930;9.532;2023-04-03T13:54:34;3.05;;;1.95;;
56267;SDS011;42175;46.930;9.532;2023-04-03T13:57:01;2.47;;;1.67;;
56267;SDS011;42175;46.930;9.532;2023-04-03T14:04:29;2.50;;;1.65;;
56267;SDS011;42175;46.930;9.532;2023-04-03T14:06:57;2.40;;;1.60;;
56267;SDS011;42175;46.930;9.532;2023-04-03T14:09:24;2.05;;;1.50;;
56267;SDS011;42175;46.930;9.532;2023-04-03T14:11:58;1.73;;;1.38;;
56267;SDS011;42175;46.930;9.532;2023-04-03T14:14:31;2.30;;;1.52;;
56267;SDS011;42175;46.930;9.532;2023-04-03T14:17:00;2.05;;;1.52;;
56267;SDS011;42175;46.930;9.532;2023-04-03T14:19:34;4.03;;;1.42;;
56267;SDS011;42175;46.930;9.532;2023-04-03T14:22:03;2.13;;;1.40;;
56267;SDS011;42175;46.930;9.532;2023-04-03T14:24:40;2.47;;;1.65;;
56267;SDS011;42175;46.930;9.532;2023-04-03T14:27:11;2.38;;;1.70;;
56267;SDS011;42175;46.930;9.532;2023-04-03T14:29:42;1.95;;;1.50;;
56267;SDS011;42175;46.930;9.532;2023-04-03T14:32:10;1.55;;;1.20;;
56267;SDS011;42175;46.930;9.532;2023-04-03T14:34:41;2.42;;;1.77;;
56267;SDS011;42175;46.930;9.532;2023-04-03T14:37:14;5.07;;;2.38;;
56267;SDS011;42175;46.930;9.532;2023-04-03T14:39:42;2.83;;;1.35;;
56267;SDS011;42175;46.930;9.532;2023-04-03T14:42:12;1.90;;;1.35;;
56267;SDS011;42175;46.930;9.532;2023-04-03T14:44:39;4.28;;;1.70;;
56267;SDS011;42175;46.930;9.532;2023-04-03T14:47:08;5.00;;;1.55;;
56267;SDS011;42175;46.930;9.532;2023-04-03T14:49:39;3.60;;;1.70;;
56267;SDS011;42175;46.930;9.532;2023-04-03T14:52:05;4.35;;;1.80;;
56267;SDS011;42175;46.930;9.532;2023-04-03T14:54:32;2.88;;;1.77;;
56267;SDS011;42175;46.930;9.532;2023-04-03T14:56:58;9.93;;;2.17;;
56267;SDS011;42175;46.930;9.532;2023-04-03T14:59:25;5.00;;;1.95;;
56267;SDS011;42175;46.930;9.532;2023-04-03T15:01:51;2.42;;;1.90;;
56267;SDS011;42175;46.930;9.532;2023-04-03T15:04:18;2.47;;;1.70;;
56267;SDS011;42175;46.930;9.532;2023-04-03T15:06:45;6.18;;;1.83;;
56267;SDS011;42175;46.930;9.532;2023-04-03T15:09:25;4.63;;;1.48;;
56267;SDS011;42175;46.930;9.532;2023-04-03T15:11:53;5.78;;;2.95;;
56267;SDS011;42175;46.930;9.532;2023-04-03T15:14:20;18.27;;;10.90;;
56267;SDS011;42175;46.930;9.532;2023-04-03T15:16:46;8.75;;;5.13;;
56267;SDS011;42175;46.930;9.532;2023-04-03T15:19:13;5.93;;;3.50;;
56267;SDS011;42175;46.930;9.532;2023-04-03T15:21:39;5.93;;;3.50;;
56267;SDS011;42175;46.930;9.532;2023-04-03T15:24:05;7.97;;;3.55;;
56267;SDS011;42175;46.930;9.532;2023-04-03T15:26:31;6.70;;;3.60;;
56267;SDS011;42175;46.930;9.532;2023-04-03T15:28:58;6.88;;;3.58;;
56267;SDS011;42175;46.930;9.532;2023-04-03T15:31:23;8.93;;;3.80;;
56267;SDS011;42175;46.930;9.532;2023-04-03T15:33:49;7.07;;;3.67;;
56267;SDS011;42175;46.930;9.532;2023-04-03T15:36:15;5.22;;;2.97;;
56267;SDS011;42175;46.930;9.532;2023-04-03T15:38:41;5.57;;;3.83;;
56267;SDS011;42175;46.930;9.532;2023-04-03T15:41:06;7.80;;;2.97;;
56267;SDS011;42175;46.930;9.532;2023-04-03T15:43:32;6.38;;;3.35;;
56267;SDS011;42175;46.930;9.532;2023-04-03T15:46:00;7.30;;;3.38;;
56267;SDS011;42175;46.930;9.532;2023-04-03T15:48:27;8.18;;;2.92;;
56267;SDS011;42175;46.930;9.532;2023-04-03T15:50:54;5.10;;;2.70;;
56267;SDS011;42175;46.930;9.532;2023-04-03T15:53:20;5.80;;;2.40;;
56267;SDS011;42175;46.930;9.532;2023-04-03T15:55:45;5.45;;;2.80;;
56267;SDS011;42175;46.930;9.532;2023-04-03T15:58:11;5.93;;;2.80;;
56267;SDS011;42175;46.930;9.532;2023-04-03T16:00:37;8.68;;;3.00;;
56267;SDS011;42175;46.930;9.532;2023-04-03T16:03:08;11.27;;;3.95;;
56267;SDS011;42175;46.930;9.532;2023-04-03T16:05:40;9.82;;;3.85;;
56267;SDS011;42175;46.930;9.532;2023-04-03T16:08:06;14.00;;;3.95;;
56267;SDS011;42175;46.930;9.532;2023-04-03T16:10:33;11.05;;;4.50;;
56267;SDS011;42175;46.930;9.532;2023-04-03T16:13:02;9.60;;;4.25;;
56267;SDS011;42175;46.930;9.532;2023-04-03T16:15:29;13.30;;;4.55;;
56267;SDS011;42175;46.930;9.532;2023-04-03T16:17:56;12.05;;;4.10;;
56267;SDS011;42175;46.930;9.532;2023-04-03T16:20:23;15.27;;;4.72;;
56267;SDS011;42175;46.930;9.532;2023-04-03T16:22:50;6.78;;;3.85;;
56267;SDS011;42175;46.930;9.532;2023-04-03T16:25:16;14.00;;;4.05;;